John James Audubon — WDE8037 — position and weather

sailwx.info

Track history (hours):
 
Tides and Currents Weather Stations Pressure Air Temp Water Temp Dewpoint Dewpoint Depression Visibility Wind Speed Wind Dir Waves Ship Positions

John James Audubon

Owner: Statue Cruises, Jersey City, NJ. More information available from US FCC via Universal Licensing System and Coast Guard Vessel Documentation Center.

Last reported at 2014-Nov-01 05:33 UTC. Time now 2014-Nov-01 11:06 UTC.
Position N 40°44' W 074°01'.

Length 37 m.

Type: Ship. MMSI: 367400770.

Date/timePositionNaut miles runAvg speedWind from/ knotsBaromVisibWave heightAir tempDewpointWater temp
2014-Nov-01 05:33N 40°44' W 074°01'2 1.7
2014-Nov-01 04:34N 40°42' W 074°00'1 0.6
2014-Nov-01 03:33N 40°42' W 073°59'2 2.2
2014-Nov-01 02:33N 40°41' W 074°02'2 1.7
2014-Nov-01 01:33N 40°42' W 074°00'0 0.0
2014-Nov-01 00:34N 40°42' W 074°00'2 1.6
2014-Oct-31 23:34N 40°44' W 074°01'0 0.0
2014-Oct-31 22:33N 40°44' W 074°01'0 0.0
2014-Oct-31 21:33N 40°44' W 074°01'2 2.2
2014-Oct-31 20:34N 40°42' W 074°02'1 1.4
2014-Oct-31 19:34N 40°42' W 074°00'0 0.0
2014-Oct-31 18:33N 40°42' W 074°00'2 2.1
2014-Oct-31 17:33N 40°41' W 074°03'2 2.1
2014-Oct-31 16:33N 40°42' W 074°00'0 0.0
2014-Oct-31 15:34N 40°42' W 074°00'2 1.6
2014-Oct-31 14:33N 40°41' W 074°02'2 1.6
2014-Oct-31 13:34N 40°42' W 074°00'2 0.1
2014-Oct-30 21:31N 40°44' W 074°01'3 2.8
2014-Oct-30 20:33N 40°41' W 074°02'2 1.7
2014-Oct-30 19:34N 40°42' W 074°00'0 0.0
2014-Oct-30 18:33N 40°42' W 074°00'2 2.1
2014-Oct-30 17:33N 40°41' W 074°03'2 2.1
2014-Oct-30 16:33N 40°42' W 074°00'0 0.0
2014-Oct-30 15:33N 40°42' W 074°00'2 1.8
2014-Oct-30 14:33N 40°41' W 074°02'2 1.8
2014-Oct-30 13:33N 40°42' W 074°00'2 1.6
2014-Oct-30 12:33N 40°44' W 074°01'0 0.0
2014-Oct-29 21:33N 40°44' W 074°01'3 2.8
2014-Oct-29 20:33N 40°41' W 074°02'2 1.8
2014-Oct-29 19:33N 40°42' W 074°00'0 0.0
2014-Oct-29 18:33N 40°42' W 074°00'2 2.0
2014-Oct-29 17:33N 40°41' W 074°03'2 2.0
2014-Oct-29 16:33N 40°42' W 074°00'0 0.0
2014-Oct-29 15:33N 40°42' W 074°00'2 2.1
2014-Oct-29 14:33N 40°41' W 074°03'2 2.1
2014-Oct-29 13:33N 40°42' W 074°00'2 1.6
2014-Oct-29 12:33N 40°44' W 074°01'0 0.0
2014-Oct-28 21:29N 40°44' W 074°01'3 2.9
2014-Oct-28 20:33N 40°41' W 074°02'2 1.6
2014-Oct-28 19:33N 40°42' W 074°00'0 0.0
2014-Oct-28 18:34N 40°42' W 074°00'2 2.0
2014-Oct-28 17:33N 40°41' W 074°03'2 2.0
2014-Oct-28 16:33N 40°42' W 074°00'0 0.0
2014-Oct-28 15:33N 40°42' W 074°00'2 1.8
2014-Oct-28 14:33N 40°41' W 074°02'2 1.8
2014-Oct-28 13:33N 40°42' W 074°00'2 1.6
2014-Oct-28 12:33N 40°44' W 074°01'0 0.0
2014-Oct-27 21:33N 40°44' W 074°01'3 3.0
2014-Oct-27 20:33N 40°41' W 074°03'2 2.0
2014-Oct-27 19:32N 40°42' W 074°00'0 0.0
2014-Oct-27 18:33N 40°42' W 074°00'2 2.1
2014-Oct-27 17:33N 40°41' W 074°03'2 2.1
2014-Oct-27 16:33N 40°42' W 074°00'0 0.0
2014-Oct-27 15:33N 40°42' W 074°00'2 1.9
2014-Oct-27 14:33N 40°41' W 074°02'2 1.9
2014-Oct-27 13:33N 40°42' W 074°00'2 1.6
2014-Oct-27 12:33N 40°44' W 074°01'0 0.0
2014-Oct-26 04:34N 40°44' W 074°01'2 2.3
2014-Oct-26 03:34N 40°42' W 074°02'3 2.5
2014-Oct-26 02:34N 40°44' W 074°01'3 3.1
2014-Oct-26 01:33N 40°41' W 074°03'2 2.1
2014-Oct-26 00:33N 40°42' W 074°00'0 0.3
2014-Oct-25 23:34N 40°42' W 074°00'2 2.2
2014-Oct-25 22:34N 40°41' W 074°03'2 2.0
2014-Oct-25 21:26N 40°42' W 074°00'2 1.9
2014-Oct-25 20:33N 40°44' W 074°01'  
Track history (hours):
 
Tides and Currents Weather Stations Pressure Air Temp Water Temp Dewpoint Dewpoint Depression Visibility Wind Speed Wind Dir Waves Ship Positions

John James Audubon

Owner: Statue Cruises, Jersey City, NJ. More information available from US FCC via Universal Licensing System and Coast Guard Vessel Documentation Center.

Last reported at 2014-Nov-01 05:33 UTC. Time now 2014-Nov-01 11:06 UTC.
Position N 40°44' W 074°01'.

Length 37 m.

Type: Ship. MMSI: 367400770.

Date/timePositionNaut miles runAvg speedWind from/ knotsBaromVisibWave heightAir tempDewpointWater temp
2014-Nov-01 05:33N 40°44' W 074°01'2 1.7
2014-Nov-01 04:34N 40°42' W 074°00'1 0.6
2014-Nov-01 03:33N 40°42' W 073°59'2 2.2
2014-Nov-01 02:33N 40°41' W 074°02'2 1.7
2014-Nov-01 01:33N 40°42' W 074°00'0 0.0
2014-Nov-01 00:34N 40°42' W 074°00'2 1.6
2014-Oct-31 23:34N 40°44' W 074°01'0 0.0
2014-Oct-31 22:33N 40°44' W 074°01'0 0.0
2014-Oct-31 21:33N 40°44' W 074°01'2 2.2
2014-Oct-31 20:34N 40°42' W 074°02'1 1.4
2014-Oct-31 19:34N 40°42' W 074°00'0 0.0
2014-Oct-31 18:33N 40°42' W 074°00'2 2.1
2014-Oct-31 17:33N 40°41' W 074°03'2 2.1
2014-Oct-31 16:33N 40°42' W 074°00'0 0.0
2014-Oct-31 15:34N 40°42' W 074°00'2 1.6
2014-Oct-31 14:33N 40°41' W 074°02'2 1.6
2014-Oct-31 13:34N 40°42' W 074°00'2 0.1
2014-Oct-30 21:31N 40°44' W 074°01'3 2.8
2014-Oct-30 20:33N 40°41' W 074°02'2 1.7
2014-Oct-30 19:34N 40°42' W 074°00'0 0.0
2014-Oct-30 18:33N 40°42' W 074°00'2 2.1
2014-Oct-30 17:33N 40°41' W 074°03'2 2.1
2014-Oct-30 16:33N 40°42' W 074°00'0 0.0
2014-Oct-30 15:33N 40°42' W 074°00'2 1.8
2014-Oct-30 14:33N 40°41' W 074°02'2 1.8
2014-Oct-30 13:33N 40°42' W 074°00'2 1.6
2014-Oct-30 12:33N 40°44' W 074°01'0 0.0
2014-Oct-29 21:33N 40°44' W 074°01'3 2.8
2014-Oct-29 20:33N 40°41' W 074°02'2 1.8
2014-Oct-29 19:33N 40°42' W 074°00'0 0.0
2014-Oct-29 18:33N 40°42' W 074°00'2 2.0
2014-Oct-29 17:33N 40°41' W 074°03'2 2.0
2014-Oct-29 16:33N 40°42' W 074°00'0 0.0
2014-Oct-29 15:33N 40°42' W 074°00'2 2.1
2014-Oct-29 14:33N 40°41' W 074°03'2 2.1
2014-Oct-29 13:33N 40°42' W 074°00'2 1.6
2014-Oct-29 12:33N 40°44' W 074°01'0 0.0
2014-Oct-28 21:29N 40°44' W 074°01'3 2.9
2014-Oct-28 20:33N 40°41' W 074°02'2 1.6
2014-Oct-28 19:33N 40°42' W 074°00'0 0.0
2014-Oct-28 18:34N 40°42' W 074°00'2 2.0
2014-Oct-28 17:33N 40°41' W 074°03'2 2.0
2014-Oct-28 16:33N 40°42' W 074°00'0 0.0
2014-Oct-28 15:33N 40°42' W 074°00'2 1.8
2014-Oct-28 14:33N 40°41' W 074°02'2 1.8
2014-Oct-28 13:33N 40°42' W 074°00'2 1.6
2014-Oct-28 12:33N 40°44' W 074°01'0 0.0
2014-Oct-27 21:33N 40°44' W 074°01'3 3.0
2014-Oct-27 20:33N 40°41' W 074°03'2 2.0
2014-Oct-27 19:32N 40°42' W 074°00'0 0.0
2014-Oct-27 18:33N 40°42' W 074°00'2 2.1
2014-Oct-27 17:33N 40°41' W 074°03'2 2.1
2014-Oct-27 16:33N 40°42' W 074°00'0 0.0
2014-Oct-27 15:33N 40°42' W 074°00'2 1.9
2014-Oct-27 14:33N 40°41' W 074°02'2 1.9
2014-Oct-27 13:33N 40°42' W 074°00'2 1.6
2014-Oct-27 12:33N 40°44' W 074°01'0 0.0
2014-Oct-26 04:34N 40°44' W 074°01'2 2.3
2014-Oct-26 03:34N 40°42' W 074°02'3 2.5
2014-Oct-26 02:34N 40°44' W 074°01'3 3.1
2014-Oct-26 01:33N 40°41' W 074°03'2 2.1
2014-Oct-26 00:33N 40°42' W 074°00'0 0.3
2014-Oct-25 23:34N 40°42' W 074°00'2 2.2
2014-Oct-25 22:34N 40°41' W 074°03'2 2.0
2014-Oct-25 21:26N 40°42' W 074°00'2 1.9
2014-Oct-25 20:33N 40°44' W 074°01'  

Dump ship's entire track history